createdAt,value
2018-02-18T00:01:05.850Z,38.17
2018-02-18T00:03:33.347Z,37.50
2018-02-18T00:06:00.839Z,38.07
2018-02-18T00:08:29.121Z,34.80
2018-02-18T00:10:57.379Z,39.10
2018-02-18T00:13:24.867Z,39.93
2018-02-18T00:15:52.370Z,35.50
2018-02-18T00:18:19.859Z,40.57
2018-02-18T00:20:48.115Z,39.13
2018-02-18T00:23:15.611Z,35.33
2018-02-18T00:25:43.104Z,28.70
2018-02-18T00:28:10.586Z,40.70
2018-02-18T00:30:38.096Z,37.40
2018-02-18T00:33:05.578Z,41.87
2018-02-18T00:35:33.071Z,34.37
2018-02-18T00:38:00.575Z,38.03
2018-02-18T00:40:28.067Z,40.97
2018-02-18T00:42:55.567Z,47.27
2018-02-18T00:45:23.820Z,37.93
2018-02-18T00:47:51.315Z,44.53
2018-02-18T00:50:18.832Z,36.50
2018-02-18T00:52:46.311Z,42.13
2018-02-18T00:55:14.570Z,43.83
2018-02-18T00:57:42.843Z,40.13
2018-02-18T01:00:10.323Z,43.10
2018-02-18T01:02:38.586Z,46.57
2018-02-18T01:05:06.851Z,49.03
2018-02-18T01:07:34.340Z,44.30
2018-02-18T01:10:01.835Z,37.67
2018-02-18T01:12:29.326Z,45.40
2018-02-18T01:14:56.819Z,42.63
2018-02-18T01:17:24.329Z,41.87
2018-02-18T01:19:51.820Z,40.37
2018-02-18T01:22:20.075Z,38.40
2018-02-18T01:24:47.587Z,31.33
2018-02-18T01:27:15.084Z,37.17
2018-02-18T01:29:42.571Z,37.43
2018-02-18T01:32:10.839Z,34.67
2018-02-18T01:34:39.098Z,32.50
2018-02-18T01:37:06.586Z,39.67
2018-02-18T01:39:34.087Z,40.97
2018-02-18T01:42:01.577Z,38.20
2018-02-18T01:44:29.855Z,47.03
2018-02-18T01:46:58.152Z,51.33
2018-02-18T01:49:25.642Z,38.73
2018-02-18T01:51:53.147Z,43.80
2018-02-18T01:54:21.411Z,35.90
2018-02-18T01:56:48.899Z,41.63
2018-02-18T01:59:16.397Z,45.67
2018-02-18T02:01:43.902Z,41.07
2018-02-18T02:04:12.167Z,39.43
2018-02-18T02:06:39.659Z,49.90
2018-02-18T02:09:07.159Z,38.87
2018-02-18T02:11:34.644Z,40.70
2018-02-18T02:14:02.898Z,48.27
2018-02-18T02:16:30.416Z,39.67
2018-02-18T02:18:57.919Z,42.27
2018-02-18T02:21:25.403Z,35.80
2018-02-18T02:23:53.683Z,42.13
2018-02-18T02:26:21.939Z,33.20
2018-02-18T02:28:49.433Z,31.80
2018-02-18T02:31:16.944Z,40.93
2018-02-18T02:33:44.442Z,39.30
2018-02-18T02:36:11.931Z,36.10
2018-02-18T02:38:39.431Z,41.17
2018-02-18T02:41:06.919Z,42.40
2018-02-18T02:43:34.419Z,36.93
2018-02-18T02:46:01.921Z,41.97
2018-02-18T02:48:29.448Z,35.53
2018-02-18T02:50:56.938Z,35.07
2018-02-18T02:53:25.193Z,39.10
2018-02-18T02:55:52.708Z,36.90
2018-02-18T02:58:20.199Z,39.73
2018-02-18T03:00:47.696Z,34.17
2018-02-18T03:03:15.223Z,29.33
2018-02-18T03:05:42.714Z,35.83
2018-02-18T03:08:10.207Z,43.03
2018-02-18T03:10:37.711Z,37.87
2018-02-18T03:13:05.967Z,40.23
2018-02-18T03:15:33.473Z,38.27
2018-02-18T03:18:00.987Z,40.43
2018-02-18T03:20:28.488Z,35.23
2018-02-18T03:22:55.979Z,40.13
2018-02-18T03:25:23.480Z,44.37
2018-02-18T03:27:51.738Z,34.80
2018-02-18T03:30:19.249Z,41.33
2018-02-18T03:32:46.748Z,34.47
2018-02-18T03:35:14.244Z,33.40
2018-02-18T03:37:41.752Z,31.87
2018-02-18T03:40:09.240Z,35.40
2018-02-18T03:42:37.519Z,28.43
2018-02-18T03:45:05.771Z,27.20
2018-02-18T03:47:33.260Z,36.37
2018-02-18T03:50:00.759Z,42.57
2018-02-18T03:52:28.251Z,29.93
2018-02-18T03:54:56.511Z,42.13
2018-02-18T03:57:24.020Z,35.63
2018-02-18T03:59:51.528Z,37.43
2018-02-18T04:02:19.031Z,39.37
2018-02-18T04:04:46.535Z,30.87
2018-02-18T04:07:14.032Z,32.60
2018-02-18T04:09:42.283Z,29.57
2018-02-18T04:12:09.787Z,33.80
2018-02-18T04:14:37.296Z,33.47
2018-02-18T04:17:04.812Z,34.07
2018-02-18T04:19:32.334Z,29.70
2018-02-18T04:22:00.591Z,36.43
2018-02-18T04:24:28.086Z,31.03
2018-02-18T04:26:55.603Z,39.10
2018-02-18T04:29:23.096Z,36.83
2018-02-18T04:31:50.592Z,33.27
2018-02-18T04:34:18.118Z,39.53
2018-02-18T04:36:45.606Z,36.93
2018-02-18T04:39:13.107Z,33.63
2018-02-18T04:41:41.419Z,31.63
2018-02-18T04:44:08.929Z,32.40
2018-02-18T04:46:36.423Z,29.03
2018-02-18T04:49:03.927Z,32.57
2018-02-18T04:51:31.424Z,37.70
2018-02-18T04:53:59.696Z,43.13
2018-02-18T04:56:27.988Z,39.13
2018-02-18T04:58:55.501Z,38.30
2018-02-18T05:01:23.020Z,36.33
2018-02-18T05:03:50.510Z,35.73
2018-02-18T05:06:18.779Z,33.90
2018-02-18T05:08:46.289Z,30.97
2018-02-18T05:11:13.787Z,30.70
2018-02-18T05:13:41.283Z,29.83
2018-02-18T05:16:08.799Z,37.43
2018-02-18T05:18:36.286Z,28.10
2018-02-18T05:21:03.782Z,31.13
2018-02-18T05:23:31.296Z,31.77
2018-02-18T05:25:58.802Z,35.97
2018-02-18T05:28:26.290Z,35.70
2018-02-18T05:30:54.571Z,32.93
2018-02-18T05:33:22.831Z,36.43
2018-02-18T05:35:50.331Z,31.20
2018-02-18T05:38:17.854Z,37.13
2018-02-18T05:40:45.351Z,37.57
2018-02-18T05:43:12.840Z,32.43
2018-02-18T05:45:40.352Z,33.67
2018-02-18T05:48:07.842Z,34.43
2018-02-18T05:50:36.095Z,32.13
2018-02-18T05:53:03.603Z,34.03
2018-02-18T05:55:31.107Z,33.93
2018-02-18T05:57:58.595Z,29.53
2018-02-18T06:00:26.873Z,31.77
2018-02-18T06:02:54.364Z,29.27
2018-02-18T06:05:21.852Z,31.63
2018-02-18T06:07:49.363Z,29.70
2018-02-18T06:10:16.859Z,33.47
2018-02-18T06:12:44.367Z,34.33
2018-02-18T06:15:11.887Z,24.90
2018-02-18T06:17:39.371Z,30.70
2018-02-18T06:20:07.636Z,30.37
2018-02-18T06:22:35.902Z,36.10
2018-02-18T06:25:03.400Z,36.33
2018-02-18T06:27:30.905Z,31.93
2018-02-18T06:29:58.408Z,42.40
2018-02-18T06:32:25.894Z,35.30
2018-02-18T06:34:53.387Z,34.90
2018-02-18T06:37:20.884Z,30.13
2018-02-18T06:39:48.375Z,39.47
2018-02-18T06:42:15.862Z,38.07
2018-02-18T06:44:43.369Z,36.63
2018-02-18T06:47:10.867Z,38.07
2018-02-18T06:49:38.355Z,36.33
2018-02-18T06:52:06.631Z,39.43
2018-02-18T06:54:34.906Z,43.03
2018-02-18T06:57:03.210Z,39.83
2018-02-18T06:59:30.808Z,40.43
2018-02-18T07:01:58.336Z,35.83
2018-02-18T07:04:25.827Z,40.03
2018-02-18T07:06:53.464Z,38.30
2018-02-18T07:09:21.015Z,34.30
2018-02-18T07:11:48.470Z,51.67
2018-02-18T07:14:16.000Z,39.27
2018-02-18T07:16:44.296Z,42.17
2018-02-18T07:19:11.803Z,36.53
2018-02-18T07:21:39.302Z,46.83
2018-02-18T07:24:06.791Z,38.87
2018-02-18T07:26:34.282Z,42.23
2018-02-18T07:29:01.787Z,51.30
2018-02-18T07:31:29.275Z,41.50
2018-02-18T07:33:56.771Z,42.17
2018-02-18T07:36:24.291Z,52.43
2018-02-18T07:38:51.784Z,48.77
2018-02-18T07:41:19.275Z,49.77
2018-02-18T07:43:46.783Z,49.80
2018-02-18T07:46:14.277Z,51.23
2018-02-18T07:48:42.536Z,49.30
2018-02-18T07:51:10.021Z,55.50
2018-02-18T07:53:37.509Z,51.03
2018-02-18T07:56:05.007Z,49.63
2018-02-18T07:58:32.495Z,49.93
2018-02-18T08:00:59.995Z,48.23
2018-02-18T08:03:27.484Z,52.20
2018-02-18T08:05:55.859Z,55.23
2018-02-18T08:08:23.351Z,52.10
2018-02-18T08:10:50.839Z,55.70
2018-02-18T08:13:18.347Z,97.63
2018-02-18T08:15:46.619Z,82.97
2018-02-18T08:18:14.872Z,62.80
2018-02-18T08:20:42.370Z,54.13
2018-02-18T08:23:09.872Z,58.63
2018-02-18T08:25:37.373Z,49.07
2018-02-18T08:28:05.654Z,49.77
2018-02-18T08:30:33.914Z,43.33
2018-02-18T08:33:02.179Z,47.27
2018-02-18T08:35:29.671Z,46.73
2018-02-18T08:37:57.168Z,48.87
2018-02-18T08:40:24.660Z,40.70
2018-02-18T08:42:53.002Z,49.23
2018-02-18T08:45:20.560Z,45.43
2018-02-18T08:47:48.055Z,47.67
2018-02-18T08:50:16.327Z,48.30
2018-02-18T08:52:43.812Z,43.07
2018-02-18T08:55:11.303Z,50.37
2018-02-18T08:57:38.851Z,38.10
2018-02-18T09:00:06.360Z,39.17
2018-02-18T09:02:33.873Z,40.30
2018-02-18T09:05:01.385Z,39.93
2018-02-18T09:07:29.636Z,40.40
2018-02-18T09:09:57.145Z,37.33
2018-02-18T09:12:24.660Z,32.70
2018-02-18T09:14:52.142Z,38.23
2018-02-18T09:17:19.647Z,34.70
2018-02-18T09:19:47.916Z,39.37
2018-02-18T09:22:15.422Z,37.03
2018-02-18T09:24:43.765Z,34.73
2018-02-18T09:27:11.355Z,39.73
2018-02-18T09:29:39.624Z,39.83
2018-02-18T09:32:07.895Z,36.93
2018-02-18T09:34:35.399Z,38.73
2018-02-18T09:37:02.888Z,35.43
2018-02-18T09:39:30.395Z,39.53
2018-02-18T09:41:57.899Z,39.00
2018-02-18T09:44:25.397Z,38.10
2018-02-18T09:46:53.662Z,39.10
2018-02-18T09:49:21.170Z,36.20
2018-02-18T09:51:48.667Z,33.10
2018-02-18T09:54:16.187Z,30.77
2018-02-18T09:56:43.762Z,35.67
2018-02-18T09:59:11.301Z,31.00
2018-02-18T10:01:38.798Z,37.47
2018-02-18T10:04:06.352Z,35.17
2018-02-18T10:06:33.903Z,32.17
2018-02-18T10:09:01.583Z,34.73
2018-02-18T10:11:29.120Z,36.57
2018-02-18T10:13:56.678Z,38.00
2018-02-18T10:16:24.216Z,24.33
2018-02-18T10:18:51.766Z,34.23
2018-02-18T10:21:19.276Z,26.43
2018-02-18T10:23:46.789Z,35.03
2018-02-18T10:26:14.286Z,28.20
2018-02-18T10:28:41.780Z,28.33
2018-02-18T10:31:09.279Z,28.10
2018-02-18T10:33:36.776Z,35.37
2018-02-18T10:36:05.031Z,29.87
2018-02-18T10:38:32.539Z,19.67
2018-02-18T10:41:00.032Z,10.43
2018-02-18T10:43:27.515Z,7.80
2018-02-18T10:45:55.019Z,7.60
2018-02-18T10:48:22.600Z,5.77
2018-02-18T10:50:50.095Z,7.03
2018-02-18T10:53:17.571Z,7.77
2018-02-18T10:55:45.829Z,5.90
2018-02-18T10:58:13.352Z,5.47
2018-02-18T11:00:40.968Z,8.07
2018-02-18T11:03:08.460Z,5.07
2018-02-18T11:05:36.774Z,6.53
2018-02-18T11:08:04.289Z,13.77
2018-02-18T11:10:31.916Z,6.30
2018-02-18T11:13:01.029Z,5.30
2018-02-18T11:15:28.574Z,5.97
2018-02-18T11:17:56.160Z,12.87
2018-02-18T11:20:23.670Z,8.53
2018-02-18T11:22:51.943Z,8.33
2018-02-18T11:25:19.579Z,4.70
2018-02-18T11:27:47.137Z,6.90
2018-02-18T11:30:14.627Z,10.50
2018-02-18T11:32:42.912Z,15.90
2018-02-18T11:35:10.420Z,4.80
2018-02-18T11:37:37.900Z,6.03
2018-02-18T11:40:05.423Z,6.10
2018-02-18T11:42:32.936Z,6.80
2018-02-18T11:45:01.200Z,15.20
2018-02-18T11:47:28.708Z,6.83
2018-02-18T11:49:56.196Z,24.87
2018-02-18T11:52:23.706Z,6.67
2018-02-18T11:54:51.212Z,10.40
2018-02-18T11:57:18.742Z,10.07
2018-02-18T11:59:46.219Z,12.10
2018-02-18T12:02:13.700Z,8.03
2018-02-18T12:04:41.179Z,4.03
2018-02-18T12:07:09.467Z,4.03
2018-02-18T12:09:36.956Z,17.47
2018-02-18T12:12:04.435Z,7.67
2018-02-18T12:14:31.963Z,6.13
2018-02-18T12:16:59.448Z,5.67
2018-02-18T12:19:27.003Z,6.97
2018-02-18T12:21:54.511Z,10.57
2018-02-18T12:24:22.031Z,6.80
2018-02-18T12:26:50.371Z,4.83
2018-02-18T12:29:17.877Z,4.57
2018-02-18T12:31:46.163Z,6.33
2018-02-18T12:34:14.533Z,3.90
2018-02-18T12:36:42.823Z,8.50
2018-02-18T12:39:11.104Z,7.00
2018-02-18T12:41:39.359Z,7.00
2018-02-18T12:44:07.654Z,6.77
2018-02-18T12:46:35.939Z,17.93
2018-02-18T12:49:03.447Z,7.47
2018-02-18T12:51:30.950Z,5.80
2018-02-18T12:53:59.196Z,9.10
2018-02-18T12:56:26.695Z,6.37
2018-02-18T12:58:54.198Z,6.87
2018-02-18T13:01:21.698Z,7.00
2018-02-18T13:03:49.192Z,5.90
2018-02-18T13:06:16.679Z,7.67
2018-02-18T13:08:44.179Z,10.53
2018-02-18T13:11:11.683Z,8.33
2018-02-18T13:13:39.164Z,5.93
2018-02-18T13:16:06.665Z,4.13
2018-02-18T13:18:34.238Z,4.87
2018-02-18T13:21:01.752Z,3.90
2018-02-18T13:23:30.012Z,7.03
2018-02-18T13:25:57.496Z,5.90
2018-02-18T13:28:25.759Z,7.00
2018-02-18T13:30:54.003Z,4.83
2018-02-18T13:33:21.509Z,6.00
2018-02-18T13:35:48.991Z,5.70
2018-02-18T13:38:16.503Z,5.53
2018-02-18T13:40:44.751Z,4.17
2018-02-18T13:43:12.235Z,5.40
2018-02-18T13:45:40.516Z,5.73
2018-02-18T13:48:08.771Z,3.67
2018-02-18T13:50:36.305Z,7.23
2018-02-18T13:53:03.801Z,6.17
2018-02-18T13:55:31.283Z,3.93
2018-02-18T13:57:58.824Z,4.40
2018-02-18T14:00:27.062Z,9.03
2018-02-18T14:02:54.543Z,4.67
2018-02-18T14:05:22.042Z,7.80
2018-02-18T14:07:49.535Z,3.67
2018-02-18T14:10:17.018Z,4.30
2018-02-18T14:12:44.516Z,5.03
2018-02-18T14:15:11.992Z,8.37
2018-02-18T14:17:39.488Z,6.40
2018-02-18T14:20:07.002Z,8.27
2018-02-18T14:22:34.496Z,3.73
2018-02-18T14:25:02.000Z,8.93
2018-02-18T14:27:29.499Z,6.23
2018-02-18T14:29:56.984Z,12.13
2018-02-18T14:32:25.248Z,8.70
2018-02-18T14:34:52.739Z,4.73
2018-02-18T14:37:20.270Z,16.57
2018-02-18T14:39:48.547Z,6.43
2018-02-18T14:42:28.684Z,6.23
2018-02-18T14:45:08.225Z,5.43
2018-02-18T14:47:47.512Z,6.57
2018-02-18T14:50:27.843Z,4.93
2018-02-18T14:53:07.915Z,10.00
2018-02-18T14:55:47.207Z,10.97
2018-02-18T14:58:14.726Z,5.73
2018-02-18T15:00:42.219Z,4.27
2018-02-18T15:03:09.742Z,6.30
2018-02-18T15:05:37.248Z,9.80
2018-02-18T15:08:04.751Z,16.03
2018-02-18T15:10:32.309Z,7.63
2018-02-18T15:12:59.855Z,13.70
2018-02-18T15:15:27.362Z,10.07
2018-02-18T15:17:54.883Z,6.73
2018-02-18T15:20:22.376Z,10.60
2018-02-18T15:22:49.875Z,6.60
2018-02-18T15:25:18.167Z,5.93
2018-02-18T15:27:45.699Z,7.43
2018-02-18T15:30:13.963Z,16.10
2018-02-18T15:32:41.476Z,6.17
2018-02-18T15:35:08.995Z,7.80
2018-02-18T15:37:36.499Z,14.20
2018-02-18T15:40:03.991Z,8.17
2018-02-18T15:42:31.507Z,12.20
2018-02-18T15:44:59.060Z,20.20
2018-02-18T15:47:26.569Z,8.57
2018-02-18T15:49:54.089Z,9.07
2018-02-18T15:52:22.360Z,6.40
2018-02-18T15:54:49.866Z,12.47
2018-02-18T15:57:18.189Z,12.73
2018-02-18T15:59:45.723Z,9.23
2018-02-18T16:02:13.235Z,12.27
2018-02-18T16:04:40.755Z,8.20
2018-02-18T16:07:08.271Z,10.50
2018-02-18T16:09:36.552Z,8.07
2018-02-18T16:12:04.810Z,8.63
2018-02-18T16:14:32.333Z,17.20
2018-02-18T16:16:59.825Z,9.83
2018-02-18T16:19:27.323Z,9.47
2018-02-18T16:21:54.843Z,7.80
2018-02-18T16:24:22.358Z,13.00
2018-02-18T16:26:49.857Z,7.40
2018-02-18T16:29:17.361Z,7.23
2018-02-18T16:31:44.851Z,17.43
2018-02-18T16:34:12.344Z,11.60
2018-02-18T16:36:40.628Z,7.53
2018-02-18T16:39:08.884Z,14.63
2018-02-18T16:41:36.386Z,7.50
2018-02-18T16:44:03.920Z,17.63
2018-02-18T16:46:31.420Z,10.63
2018-02-18T16:48:58.928Z,10.23
2018-02-18T16:51:27.211Z,19.60
2018-02-18T16:53:55.472Z,14.13
2018-02-18T16:56:22.969Z,13.07
2018-02-18T16:58:50.480Z,9.33
2018-02-18T17:01:17.989Z,8.63
2018-02-18T17:03:45.491Z,11.23
2018-02-18T17:06:13.015Z,8.80
2018-02-18T17:08:40.504Z,13.13
2018-02-18T17:11:07.999Z,25.23
2018-02-18T17:13:36.260Z,13.03
2018-02-18T17:16:04.528Z,13.07
2018-02-18T17:18:32.024Z,18.37
2018-02-18T17:20:59.521Z,19.30
2018-02-18T17:23:27.036Z,47.37
2018-02-18T17:25:54.711Z,23.60
2018-02-18T17:28:22.623Z,21.10
2018-02-18T17:30:50.433Z,19.77
2018-02-18T17:33:17.974Z,31.33
2018-02-18T17:35:46.232Z,12.77
2018-02-18T17:38:13.736Z,20.80
2018-02-18T17:40:41.407Z,13.03
2018-02-18T17:43:08.894Z,21.60
2018-02-18T17:45:36.398Z,25.57
2018-02-18T17:48:03.903Z,21.87
2018-02-18T17:50:31.434Z,21.93
2018-02-18T17:52:58.932Z,26.57
2018-02-18T17:55:27.208Z,174.80
2018-02-18T17:57:54.723Z,49.53
2018-02-18T18:00:22.246Z,11.30
2018-02-18T18:02:50.496Z,13.37
2018-02-18T18:05:18.007Z,8.67
2018-02-18T18:07:45.500Z,29.63
2018-02-18T18:10:12.989Z,9.47
2018-02-18T18:12:41.276Z,7.73
2018-02-18T18:15:08.753Z,9.87
2018-02-18T18:17:36.242Z,9.90
2018-02-18T18:20:03.732Z,8.60
2018-02-18T18:22:31.980Z,9.27
2018-02-18T18:24:59.487Z,6.93
2018-02-18T18:27:26.978Z,10.70
2018-02-18T18:29:54.479Z,8.87
2018-02-18T18:32:22.755Z,8.93
2018-02-18T18:34:51.040Z,7.33
2018-02-18T18:37:19.299Z,9.40
2018-02-18T18:39:46.807Z,8.13
2018-02-18T18:42:14.329Z,16.03
2018-02-18T18:44:42.576Z,8.93
2018-02-18T18:47:10.120Z,8.13
2018-02-18T18:49:38.384Z,12.90
2018-02-18T18:52:05.883Z,9.67
2018-02-18T18:54:33.395Z,8.77
2018-02-18T18:57:00.912Z,11.40
2018-02-18T18:59:28.404Z,9.60
2018-02-18T19:01:56.696Z,8.93
2018-02-18T19:04:24.922Z,10.13
2018-02-18T19:06:52.439Z,9.73
2018-02-18T19:09:19.952Z,8.70
2018-02-18T19:11:47.443Z,9.40
2018-02-18T19:14:15.160Z,10.53
2018-02-18T19:16:42.677Z,10.13
2018-02-18T19:19:10.202Z,13.63
2018-02-18T19:21:38.467Z,11.93
2018-02-18T19:24:05.985Z,12.00
2018-02-18T19:26:33.484Z,10.70
2018-02-18T19:29:01.767Z,10.50
2018-02-18T19:31:30.061Z,12.30
2018-02-18T19:33:57.560Z,15.33
2018-02-18T19:36:25.051Z,15.10
2018-02-18T19:38:52.754Z,16.43
2018-02-18T19:41:20.375Z,13.90
2018-02-18T19:43:48.716Z,11.53
2018-02-18T19:46:16.227Z,13.07
2018-02-18T19:48:44.945Z,12.23
2018-02-18T19:51:12.501Z,18.73
2018-02-18T19:53:40.008Z,15.50
2018-02-18T19:56:07.587Z,15.57
2018-02-18T19:58:35.850Z,13.50
2018-02-18T20:01:03.637Z,13.20
2018-02-18T20:03:31.907Z,14.13
2018-02-18T20:06:00.167Z,13.33
2018-02-18T20:08:27.675Z,13.17
2018-02-18T20:10:55.217Z,14.70
2018-02-18T20:13:22.717Z,16.20
2018-02-18T20:15:50.219Z,13.33
2018-02-18T20:18:18.487Z,13.87
2018-02-18T20:20:47.768Z,15.13
2018-02-18T20:23:16.194Z,13.37
2018-02-18T20:25:43.725Z,15.00
2018-02-18T20:28:11.993Z,15.67
2018-02-18T20:30:40.278Z,16.30
2018-02-18T20:33:08.625Z,19.30
2018-02-18T20:35:36.208Z,13.77
2018-02-18T20:38:04.129Z,13.93
2018-02-18T20:40:31.781Z,16.10
2018-02-18T20:42:59.652Z,12.67
2018-02-18T20:45:27.156Z,14.33
2018-02-18T20:47:54.724Z,13.80
2018-02-18T20:50:23.009Z,15.17
2018-02-18T20:52:52.194Z,14.43
2018-02-18T20:55:20.701Z,12.07
2018-02-18T20:57:48.211Z,13.20
2018-02-18T21:00:15.699Z,15.70
2018-02-18T21:02:43.965Z,14.43
2018-02-18T21:05:12.263Z,14.57
2018-02-18T21:07:39.759Z,18.23
2018-02-18T21:10:07.290Z,10.87
2018-02-18T21:12:34.815Z,15.97
2018-02-18T21:15:03.105Z,13.93
2018-02-18T21:17:30.761Z,10.80
2018-02-18T21:19:58.255Z,12.57
2018-02-18T21:22:25.748Z,14.67
2018-02-18T21:24:53.286Z,11.63
2018-02-18T21:27:20.957Z,17.17
2018-02-18T21:29:48.443Z,13.57
2018-02-18T21:32:15.960Z,11.50
2018-02-18T21:34:43.472Z,12.87
2018-02-18T21:37:11.023Z,12.37
2018-02-18T21:39:38.595Z,13.97
2018-02-18T21:42:06.090Z,12.97
2018-02-18T21:44:33.676Z,13.97
2018-02-18T21:47:01.175Z,13.07
2018-02-18T21:49:28.834Z,17.10
2018-02-18T21:51:56.441Z,10.97
2018-02-18T21:54:23.959Z,11.93
2018-02-18T21:56:51.520Z,11.70
2018-02-18T21:59:19.798Z,10.63
2018-02-18T22:01:48.063Z,13.50
2018-02-18T22:04:15.577Z,16.57
2018-02-18T22:06:43.251Z,15.57
2018-02-18T22:09:10.794Z,14.63
2018-02-18T22:11:38.316Z,14.23
2018-02-18T22:14:05.873Z,14.53
2018-02-18T22:16:33.379Z,12.47
2018-02-18T22:19:00.877Z,15.23
2018-02-18T22:21:28.408Z,15.40
2018-02-18T22:23:55.983Z,13.77
2018-02-18T22:26:23.548Z,10.77
2018-02-18T22:28:51.835Z,11.00
2018-02-18T22:31:19.334Z,14.83
2018-02-18T22:33:47.046Z,13.07
2018-02-18T22:36:14.601Z,12.70
2018-02-18T22:38:42.108Z,12.80
2018-02-18T22:41:09.666Z,10.93
2018-02-18T22:43:37.253Z,14.90
2018-02-18T22:46:04.785Z,32.57
2018-02-18T22:48:32.363Z,41.30
2018-02-18T22:50:59.984Z,27.73
2018-02-18T22:53:28.262Z,24.13
2018-02-18T22:55:55.777Z,16.67
2018-02-18T22:58:23.284Z,19.43
2018-02-18T23:00:51.589Z,13.63
2018-02-18T23:03:19.144Z,16.57
2018-02-18T23:05:52.515Z,16.67
2018-02-18T23:08:21.783Z,16.07
2018-02-18T23:10:49.320Z,16.97
2018-02-18T23:13:16.887Z,13.97
2018-02-18T23:15:44.386Z,12.97
2018-02-18T23:18:11.891Z,15.47
2018-02-18T23:20:51.957Z,22.53
2018-02-18T23:23:19.484Z,15.03
2018-02-18T23:25:47.001Z,13.80
2018-02-18T23:28:14.508Z,14.37
2018-02-18T23:30:42.032Z,12.90
2018-02-18T23:33:09.533Z,13.77
2018-02-18T23:35:37.091Z,20.53
2018-02-18T23:38:04.615Z,22.07
2018-02-18T23:40:32.872Z,21.03
2018-02-18T23:43:00.859Z,16.10
2018-02-18T23:45:29.143Z,22.30
2018-02-18T23:47:56.689Z,22.87
2018-02-18T23:50:24.227Z,18.03
2018-02-18T23:52:51.719Z,25.47
2018-02-18T23:55:20.031Z,23.80
2018-02-18T23:57:47.552Z,16.77
